Monticello Municipal Ellis Field
KLLQ : now visible

Airfield :











YOU CAN JOIN US ON...

 
LOGIN :

Register | Disclaimer

   EN    FR    IT 

 









Legend :    VFR   Marginal VFR   IFR   Intensive IFR   Very Intensive IFR
Visi :
Ceiling :
>= 8 km
>= 3000ft
5 to 8 km
1000 to 3000 ft
1500m to 5 km
500 to 1000 ft
800 to 1500m
200 to 500 ft
< 800m
< 200 ft
Symbols :   Thunderstorms  Fog  Heavy snow  Heavy precipitations  Wind > 20 kt






- Airport Elevation : 270 ft


KLLQ - Monticello Municipal Ellis Field

CURRENT METAR :
  • 242153Z AUTO 29007KT 10SM OVC033 09/02 A3005 RMK AO2 SLP176 T00890017

EXPIRED METARs :
  • 242053Z AUTO 27009KT 10SM OVC033 09/02 A3004 RMK AO2 SLP174 T00890017 55005
  • 242011Z AUTO 28010KT 10SM FEW026 OVC034 08/02 A3004 RMK AO2 T00830022
  • 241953Z AUTO 26011KT 10SM OVC032 08/02 A3004 RMK AO2 SLP172 T00830022

TAF KLLQ
Valid from the 24 at 21:00 until the 25 at 18:00 UTC


242101Z 2421/2518 28010KT P6SM BKN035
FM250100 VRB06KT P6SM BKN050
FM251200 28006KT P6SM BKN250



MET'MAP, your aeronautical weather chart ! - Copyright ORBIFLY December 2007 - Disclaimer

ORBIFLY MET'MAP TEAM :

Programming & Development : Alexandra Zaïnal
Concept & original design : Baudouin d'Aumeries
Assistance for programming : Marc-Olivier Méhu
Technical & hardware support : Manuel Goepfert

Contact : metmap@orbifly.com




SOURCES & CREDITS :

   NOAA       Earth
Advisory